PWSweather.com
Personal Weather Stations
Station Observations
ABQWX
Albuquerque, NM 87110

Albuquerque, NM 87110

Lat: 35.1305, Lon: -106.58571

Elevation: 5210

Station Type: LaCrosse

http://www.albuquerqueweather.info/

High Low Average
Temperature 65.8°F18.8°C 54.9°F12.7°C 58.2°F14.6°C
Dew Point 35.9°F2.2°C 29.5°F-1.4°C 31.5°F-0.3°C
Winds 3.9 mph 6.3 kmh 0.4 mph 0.6 kmh 2.0 mph WSW3.2 kmh WSW
Wind Gusts 7.8 mph12.6 kmh 0.9 mph1.4 kmh 4.0 mph6.4 kmh
Humidity 40% 33% 36%
Pressure 29.87 in1011.5 mb 29.81 in1009.5 mb -
Precipitation 0.00 in0.0 mm - -
Hour Temp Dew Point Humidity Winds Wind Gusts Pressure Precip Precip Rate Daily Precip Total
12:00 AM 63.0°F17.2°C 31.8°F-0.1°C 31% 1.8 mph SE2.9 kmh SE 3.8 mph6.1 kmh 29.80 in1009.1 mb 0.00 in0.0 mm 0.00 in0.0 mm 0.00 in0.0 mm
01:00 AM 60.3°F15.7°C 31.0°F-0.6°C 33% 0.4 mph SW0.6 kmh SW 0.9 mph1.4 kmh 29.81 in1009.5 mb 0.00 in0.0 mm 0.00 in0.0 mm 0.00 in0.0 mm
02:00 AM 57.7°F14.3°C 31.6°F-0.2°C 37% 2.3 mph E3.7 kmh E 3.6 mph5.8 kmh 29.82 in1009.8 mb 0.00 in0.0 mm 0.00 in0.0 mm 0.00 in0.0 mm
03:00 AM 58.8°F14.9°C 29.7°F-1.3°C 33% 2.8 mph NW4.5 kmh NW 6.3 mph10.1 kmh 29.84 in1010.5 mb 0.00 in0.0 mm 0.00 in0.0 mm 0.00 in0.0 mm
04:00 AM 55.2°F12.9°C 30.7°F-0.7°C 39% 0.5 mph NE0.8 kmh NE 2.5 mph4.0 kmh 29.85 in1010.8 mb 0.00 in0.0 mm 0.00 in0.0 mm 0.00 in0.0 mm
05:00 AM 56.1°F13.4°C 29.5°F-1.4°C 36% 1.2 mph N1.9 kmh N 2.5 mph4.0 kmh 29.84 in1010.5 mb 0.00 in0.0 mm 0.00 in0.0 mm 0.00 in0.0 mm
06:00 AM 55.2°F12.9°C 30.0°F-1.1°C 38% 2.8 mph NW4.5 kmh NW 4.0 mph6.4 kmh 29.85 in1010.8 mb 0.00 in0.0 mm 0.00 in0.0 mm 0.00 in0.0 mm
07:00 AM 54.9°F12.7°C 31.0°F-0.6°C 40% 2.2 mph NW3.5 kmh NW 4.5 mph7.2 kmh 29.86 in1011.2 mb 0.00 in0.0 mm 0.00 in0.0 mm 0.00 in0.0 mm
08:00 AM 59.4°F15.2°C 33.7°F0.9°C 38% 2.4 mph NW3.9 kmh NW 4.5 mph7.2 kmh 29.87 in1011.5 mb 0.00 in0.0 mm 0.00 in0.0 mm 0.00 in0.0 mm
09:00 AM 65.8°F18.8°C 35.9°F2.2°C 33% 3.9 mph NW6.3 kmh NW 7.8 mph12.6 kmh 29.87 in1011.5 mb 0.00 in0.0 mm 0.00 in0.0 mm 0.00 in0.0 mm
10:00 AM 71.8°F22.1°C 37.8°F3.2°C 29% 3.1 mph WSW5.0 kmh WSW 5.8 mph9.3 kmh 29.87 in1011.5 mb 0.00 in0.0 mm 0.00 in0.0 mm 0.00 in0.0 mm
11:00 AM 75.2°F24.0°C 36.9°F2.7°C 25% 3.7 mph S6.0 kmh S 6.9 mph11.1 kmh 29.86 in1011.2 mb 0.00 in0.0 mm 0.00 in0.0 mm 0.00 in0.0 mm
12:00 PM 75.9°F24.4°C 37.6°F3.1°C 25% 3.2 mph S5.1 kmh S 6.3 mph10.1 kmh 29.85 in1010.8 mb 0.00 in0.0 mm 0.00 in0.0 mm 0.00 in0.0 mm
01:00 PM 77.4°F25.2°C 37.7°F3.2°C 24% 3.5 mph SW5.6 kmh SW 9.8 mph15.8 kmh 29.83 in1010.2 mb 0.00 in0.0 mm 0.00 in0.0 mm 0.00 in0.0 mm
02:00 PM 79.9°F26.6°C 35.2°F1.8°C 20% 4.4 mph WSW7.1 kmh WSW 10.5 mph16.9 kmh 29.81 in1009.5 mb 0.00 in0.0 mm 0.00 in0.0 mm 0.00 in0.0 mm
03:00 PM 77.7°F25.4°C 32.1°F0.1°C 19% 3.5 mph S5.6 kmh S 8.5 mph13.7 kmh 29.79 in1008.8 mb 0.00 in0.0 mm 0.00 in0.0 mm 0.00 in0.0 mm
04:00 PM 80.8°F27.1°C 33.3°F0.7°C 18% 4.3 mph WSW6.9 kmh WSW 7.8 mph12.6 kmh 29.76 in1007.8 mb 0.00 in0.0 mm 0.00 in0.0 mm 0.00 in0.0 mm
05:00 PM 77.7°F25.4°C 29.4°F-1.4°C 17% 4.9 mph W7.9 kmh W 9.2 mph14.8 kmh 29.75 in1007.5 mb 0.00 in0.0 mm 0.00 in0.0 mm 0.00 in0.0 mm
06:00 PM 75.6°F24.2°C 27.7°F-2.4°C 17% 6.5 mph WSW10.5 kmh WSW 10.3 mph16.6 kmh 29.74 in1007.1 mb 0.00 in0.0 mm 0.00 in0.0 mm 0.00 in0.0 mm
07:00 PM 73.2°F22.9°C 27.1°F-2.7°C 18% 5.1 mph W8.2 kmh W 9.2 mph14.8 kmh 29.74 in1007.1 mb 0.00 in0.0 mm 0.00 in0.0 mm 0.00 in0.0 mm
08:00 PM 70.2°F21.2°C 25.9°F-3.4°C 19% 4.7 mph W7.6 kmh W 6.7 mph10.8 kmh 29.76 in1007.8 mb 0.00 in0.0 mm 0.00 in0.0 mm 0.00 in0.0 mm
09:00 PM 68.4°F20.2°C 26.9°F-2.8°C 21% 2.9 mph WSW4.7 kmh WSW 5.4 mph8.7 kmh 29.78 in1008.5 mb 0.00 in0.0 mm 0.00 in0.0 mm 0.00 in0.0 mm
10:00 PM 65.8°F18.8°C 29.0°F-1.7°C 25% 5.4 mph NNE8.7 kmh NNE 11.4 mph18.3 kmh 29.81 in1009.5 mb 0.00 in0.0 mm 0.00 in0.0 mm 0.00 in0.0 mm
11:00 PM 63.0°F17.2°C 28.4°F-2.0°C 27% 4.1 mph NNW6.6 kmh NNW 8.9 mph14.3 kmh 29.82 in1009.8 mb 0.00 in0.0 mm 0.00 in0.0 mm 0.00 in0.0 mm